createdAt,value
2023-03-17T00:00:34.896Z,444.00
2023-03-17T00:01:34.913Z,444.00
2023-03-17T00:02:35.003Z,446.00
2023-03-17T00:03:35.106Z,450.00
2023-03-17T00:04:35.153Z,457.00
2023-03-17T00:05:35.270Z,451.00
2023-03-17T00:06:35.373Z,453.00
2023-03-17T00:07:35.426Z,452.00
2023-03-17T00:08:35.495Z,466.00
2023-03-17T00:09:35.572Z,451.00
2023-03-17T00:10:35.661Z,453.00
2023-03-17T00:11:35.793Z,449.00
2023-03-17T00:12:35.868Z,450.00
2023-03-17T00:13:35.952Z,443.00
2023-03-17T00:14:36.027Z,455.00
2023-03-17T00:15:36.132Z,446.00
2023-03-17T00:16:36.210Z,448.00
2023-03-17T00:17:36.298Z,441.00
2023-03-17T00:18:36.411Z,439.00
2023-03-17T00:19:36.512Z,438.00
2023-03-17T00:20:36.618Z,449.00
2023-03-17T00:21:36.696Z,451.00
2023-03-17T00:22:36.782Z,451.00
2023-03-17T00:23:36.876Z,461.00
2023-03-17T00:24:36.937Z,446.00
2023-03-17T00:25:37.069Z,457.00
2023-03-17T00:26:37.059Z,462.00
2023-03-17T00:27:37.127Z,439.00
2023-03-17T00:28:37.209Z,446.00
2023-03-17T00:29:37.262Z,460.00
2023-03-17T00:30:37.369Z,445.00
2023-03-17T00:31:37.508Z,450.00
2023-03-17T00:32:37.566Z,449.00
2023-03-17T00:33:37.633Z,440.00
2023-03-17T00:34:37.687Z,446.00
2023-03-17T00:35:37.845Z,469.00
2023-03-17T00:36:37.871Z,462.00
2023-03-17T00:37:37.955Z,449.00
2023-03-17T00:38:38.050Z,448.00
2023-03-17T00:39:38.204Z,453.00
2023-03-17T00:40:38.204Z,461.00
2023-03-17T00:49:38.717Z,453.00
2023-03-17T00:50:38.749Z,453.00
2023-03-17T00:51:38.756Z,449.00
2023-03-17T00:52:38.783Z,466.00
2023-03-17T00:53:38.820Z,454.00
2023-03-17T00:54:38.835Z,447.00
2023-03-17T00:55:38.881Z,448.00
2023-03-17T00:56:38.920Z,454.00
2023-03-17T00:57:38.965Z,456.00
2023-03-17T00:58:38.983Z,413.00
2023-03-17T00:59:39.069Z,469.00
2023-03-17T01:00:39.140Z,446.00
2023-03-17T01:01:39.262Z,447.00
2023-03-17T01:02:39.234Z,448.00
2023-03-17T01:03:39.267Z,449.00
2023-03-17T01:04:39.286Z,445.00
2023-03-17T01:05:39.324Z,439.00
2023-03-17T01:06:39.328Z,427.00
2023-03-17T01:07:39.347Z,445.00
2023-03-17T01:08:39.380Z,457.00
2023-03-17T01:09:39.396Z,461.00
2023-03-17T01:10:39.424Z,449.00
2023-03-17T01:11:39.469Z,436.00
2023-03-17T01:12:39.529Z,460.00
2023-03-17T01:13:39.578Z,456.00
2023-03-17T01:14:39.633Z,440.00
2023-03-17T01:15:39.727Z,445.00
2023-03-17T01:16:39.846Z,445.00
2023-03-17T01:17:39.851Z,447.00
2023-03-17T01:18:39.994Z,436.00
2023-03-17T01:19:39.986Z,452.00
2023-03-17T01:20:40.061Z,451.00
2023-03-17T01:21:40.101Z,453.00
2023-03-17T01:22:40.132Z,442.00
2023-03-17T01:23:40.184Z,437.00
2023-03-17T01:24:40.230Z,442.00
2023-03-17T01:25:40.280Z,427.00
2023-03-17T01:26:40.373Z,455.00
2023-03-17T01:27:40.383Z,446.00
2023-03-17T01:28:40.439Z,440.00
2023-03-17T01:29:40.488Z,454.00
2023-03-17T01:30:40.549Z,398.00
2023-03-17T01:31:40.638Z,451.00
2023-03-17T01:32:40.731Z,473.00
2023-03-17T01:33:40.788Z,436.00
2023-03-17T01:34:40.886Z,424.00
2023-03-17T01:35:40.982Z,457.00
2023-03-17T01:36:41.077Z,474.00
2023-03-17T01:37:41.162Z,270.00
2023-03-17T01:38:41.255Z,464.00
2023-03-17T01:39:41.335Z,455.00
2023-03-17T01:40:41.406Z,386.00
2023-03-17T01:41:41.527Z,447.00
2023-03-17T01:42:41.661Z,444.00
2023-03-17T01:43:41.730Z,472.00
2023-03-17T01:44:41.815Z,465.00
2023-03-17T01:45:42.031Z,450.00
2023-03-17T01:46:42.270Z,448.00
2023-03-17T01:47:42.497Z,448.00
2023-03-17T01:48:42.731Z,447.00
2023-03-17T01:49:42.980Z,449.00
2023-03-17T01:50:43.223Z,444.00
2023-03-17T01:51:43.473Z,437.00
2023-03-17T01:52:43.719Z,441.00
2023-03-17T01:53:43.926Z,441.00
2023-03-17T01:54:44.171Z,429.00
2023-03-17T01:55:44.408Z,455.00
2023-03-17T01:56:44.647Z,453.00
2023-03-17T01:57:44.860Z,435.00
2023-03-17T01:58:45.089Z,468.00
2023-03-17T01:59:45.331Z,451.00
2023-03-17T02:00:45.623Z,455.00
2023-03-17T02:01:45.806Z,451.00
2023-03-17T02:02:46.028Z,446.00
2023-03-17T02:03:46.287Z,451.00
2023-03-17T02:04:46.485Z,453.00
2023-03-17T02:05:46.702Z,459.00
2023-03-17T02:06:57.529Z,446.00
2023-03-17T02:07:47.984Z,459.00
2023-03-17T02:08:47.034Z,451.00
2023-03-17T02:09:47.089Z,440.00
2023-03-17T02:10:47.133Z,440.00
2023-03-17T02:11:47.190Z,438.00
2023-03-17T02:12:47.256Z,440.00
2023-03-17T02:13:47.290Z,433.00
2023-03-17T02:14:47.334Z,447.00
2023-03-17T02:20:48.115Z,449.00
2023-03-17T02:21:48.346Z,471.00
2023-03-17T02:22:48.586Z,452.00
2023-03-17T02:23:48.840Z,448.00
2023-03-17T02:24:49.078Z,461.00
2023-03-17T02:25:49.325Z,463.00
2023-03-17T02:26:49.570Z,432.00
2023-03-17T02:27:49.787Z,453.00
2023-03-17T02:28:50.002Z,451.00
2023-03-17T02:29:50.207Z,436.00
2023-03-17T02:30:50.428Z,436.00
2023-03-17T02:31:50.597Z,441.00
2023-03-17T02:32:50.938Z,434.00
2023-03-17T02:33:51.064Z,437.00
2023-03-17T02:34:51.268Z,452.00
2023-03-17T02:35:51.520Z,445.00
2023-03-17T02:36:51.799Z,439.00
2023-03-17T02:37:51.969Z,447.00
2023-03-17T02:38:52.119Z,440.00
2023-03-17T02:39:52.380Z,448.00
2023-03-17T02:40:52.610Z,428.00
2023-03-17T02:41:52.841Z,471.00
2023-03-17T02:42:53.093Z,446.00
2023-03-17T02:43:53.345Z,440.00
2023-03-17T02:44:53.566Z,444.00
2023-03-17T02:45:53.861Z,439.00
2023-03-17T02:46:54.043Z,437.00
2023-03-17T02:47:54.278Z,437.00
2023-03-17T02:48:54.526Z,429.00
2023-03-17T02:49:54.749Z,448.00
2023-03-17T03:03:58.112Z,439.00
2023-03-17T03:04:58.351Z,452.00
2023-03-17T03:05:58.594Z,446.00
2023-03-17T03:06:58.845Z,457.00
2023-03-17T03:47:08.191Z,466.00
2023-03-17T03:48:08.436Z,465.00
2023-03-17T03:49:08.637Z,462.00
2023-03-17T03:50:08.888Z,459.00
2023-03-17T03:51:09.098Z,455.00
2023-03-17T03:52:09.360Z,463.00
2023-03-17T03:53:09.587Z,462.00
2023-03-17T03:54:09.827Z,458.00
2023-03-17T03:55:10.061Z,452.00
2023-03-17T03:56:10.294Z,455.00
2023-03-17T03:57:10.623Z,476.00
2023-03-17T03:58:10.745Z,460.00
2023-03-17T03:59:10.972Z,447.00
2023-03-17T04:00:11.193Z,446.00
2023-03-17T04:01:11.431Z,435.00
2023-03-17T04:02:11.684Z,464.00
2023-03-17T04:03:11.982Z,461.00
2023-03-17T04:04:12.152Z,455.00
2023-03-17T04:05:12.389Z,489.00
2023-03-17T04:06:12.637Z,519.00
2023-03-17T04:07:12.886Z,534.00
2023-03-17T04:08:13.114Z,488.00
2023-03-17T04:09:13.377Z,486.00
2023-03-17T04:10:13.627Z,549.00
2023-03-17T04:11:13.894Z,513.00
2023-03-17T05:11:28.160Z,488.00
2023-03-17T05:12:28.396Z,500.00
2023-03-17T05:13:28.623Z,486.00
2023-03-17T05:14:28.858Z,509.00
2023-03-17T05:15:29.075Z,506.00
2023-03-17T05:16:29.343Z,519.00
2023-03-17T05:59:38.141Z,503.00
2023-03-17T06:00:38.395Z,508.00
2023-03-17T06:01:38.629Z,514.00
2023-03-17T06:02:38.875Z,508.00
2023-03-17T06:03:39.164Z,510.00
2023-03-17T06:04:39.334Z,482.00
2023-03-17T06:05:39.569Z,501.00
2023-03-17T06:06:39.828Z,512.00
2023-03-17T06:07:51.535Z,511.00
2023-03-17T06:09:40.080Z,491.00
2023-03-17T06:10:40.121Z,506.00
2023-03-17T06:11:40.161Z,521.00
2023-03-17T06:12:40.210Z,509.00
2023-03-17T06:13:40.261Z,509.00
2023-03-17T06:14:40.318Z,503.00
2023-03-17T06:15:40.390Z,503.00
2023-03-17T06:16:40.450Z,509.00
2023-03-17T06:17:40.452Z,497.00
2023-03-17T06:18:40.485Z,502.00
2023-03-17T06:19:40.697Z,500.00
2023-03-17T06:20:40.600Z,506.00
2023-03-17T06:21:40.740Z,509.00
2023-03-17T06:23:40.956Z,512.00
2023-03-17T07:09:48.171Z,516.00
2023-03-17T07:10:48.400Z,499.00
2023-03-17T07:11:48.633Z,508.00
2023-03-17T07:12:48.823Z,484.00
2023-03-17T07:13:49.042Z,506.00
2023-03-17T07:14:49.852Z,505.00
2023-03-17T07:15:49.386Z,505.00
2023-03-17T07:16:49.441Z,504.00
2023-03-17T07:17:49.478Z,501.00
2023-03-17T07:18:49.524Z,509.00
2023-03-17T07:19:49.577Z,503.00
2023-03-17T07:20:50.323Z,499.00
2023-03-17T07:21:49.733Z,487.00
2023-03-17T07:22:50.332Z,497.00
2023-03-17T07:23:49.921Z,502.00
2023-03-17T07:24:49.961Z,497.00
2023-03-17T07:25:50.844Z,511.00
2023-03-17T07:26:50.094Z,517.00
2023-03-17T07:27:50.175Z,506.00
2023-03-17T07:28:50.229Z,512.00
2023-03-17T07:29:50.350Z,510.00
2023-03-17T07:30:50.392Z,505.00
2023-03-17T07:31:50.514Z,520.00
2023-03-17T07:32:50.564Z,514.00
2023-03-17T07:33:50.582Z,510.00
2023-03-17T07:34:50.632Z,508.00
2023-03-17T07:35:50.753Z,505.00
2023-03-17T07:36:50.799Z,513.00
2023-03-17T07:37:50.887Z,506.00
2023-03-17T07:38:50.930Z,484.00
2023-03-17T07:39:51.022Z,529.00
2023-03-17T07:40:51.075Z,534.00
2023-03-17T07:41:51.135Z,521.00
2023-03-17T07:42:51.250Z,514.00
2023-03-17T07:43:51.311Z,516.00
2023-03-17T07:44:51.413Z,520.00
2023-03-17T07:45:51.578Z,516.00
2023-03-17T07:46:51.622Z,520.00
2023-03-17T07:47:51.680Z,524.00
2023-03-17T07:48:51.755Z,521.00
2023-03-17T07:49:51.852Z,516.00
2023-03-17T07:50:51.939Z,527.00
2023-03-17T07:51:52.009Z,527.00
2023-03-17T07:52:52.112Z,524.00
2023-03-17T07:53:52.182Z,520.00
2023-03-17T07:54:52.253Z,506.00
2023-03-17T07:55:52.368Z,523.00
2023-03-17T07:56:52.447Z,503.00
2023-03-17T07:57:52.572Z,500.00
2023-03-17T07:58:52.525Z,520.00
2023-03-17T07:59:52.580Z,507.00
2023-03-17T08:00:52.698Z,514.00
2023-03-17T08:03:52.960Z,523.00
2023-03-17T08:04:52.905Z,517.00
2023-03-17T08:45:58.362Z,516.00
2023-03-17T09:03:59.355Z,502.00
2023-03-17T09:51:58.156Z,523.00
2023-03-17T09:52:58.404Z,509.00
2023-03-17T09:53:58.561Z,520.00
2023-03-17T09:54:58.714Z,524.00
2023-03-17T09:55:59.002Z,514.00
2023-03-17T09:56:59.172Z,522.00
2023-03-17T10:39:01.057Z,544.00
2023-03-17T10:42:02.782Z,514.00
2023-03-17T10:56:01.700Z,483.00
2023-03-17T11:00:01.314Z,518.00
2023-03-17T11:01:01.318Z,514.00
2023-03-17T11:02:01.134Z,505.00
2023-03-17T11:03:01.011Z,505.00
2023-03-17T11:04:00.963Z,513.00
2023-03-17T11:05:00.875Z,503.00
2023-03-17T11:06:00.885Z,498.00
2023-03-17T11:07:01.897Z,501.00
2023-03-17T11:08:00.963Z,500.00
2023-03-17T11:09:00.935Z,498.00
2023-03-17T11:10:00.864Z,506.00
2023-03-17T11:11:00.929Z,502.00
2023-03-17T11:12:00.994Z,481.00
2023-03-17T11:13:01.232Z,504.00
2023-03-17T11:14:01.360Z,503.00
2023-03-17T11:15:01.622Z,496.00
2023-03-17T11:16:02.419Z,511.00
2023-03-17T11:17:01.730Z,501.00
2023-03-17T11:18:01.606Z,497.00
2023-03-17T11:19:01.538Z,506.00
2023-03-17T11:20:01.564Z,509.00
2023-03-17T11:21:01.715Z,509.00
2023-03-17T11:22:01.866Z,494.00
2023-03-17T11:23:02.163Z,513.00
2023-03-17T11:24:02.299Z,513.00
2023-03-17T11:25:02.480Z,505.00
2023-03-17T11:26:02.705Z,504.00
2023-03-17T11:27:02.857Z,505.00
2023-03-17T11:28:03.075Z,502.00
2023-03-17T11:29:03.260Z,511.00
2023-03-17T11:30:03.420Z,512.00
2023-03-17T11:31:03.598Z,510.00
2023-03-17T11:32:03.831Z,517.00
2023-03-17T11:55:08.065Z,503.00
2023-03-17T11:56:08.176Z,511.00
2023-03-17T11:57:08.426Z,518.00
2023-03-17T11:58:08.553Z,514.00
2023-03-17T11:59:08.891Z,513.00
2023-03-17T12:00:08.949Z,524.00
2023-03-17T12:01:09.160Z,516.00
2023-03-17T12:02:09.262Z,509.00
2023-03-17T12:03:09.480Z,521.00
2023-03-17T12:04:09.669Z,520.00
2023-03-17T12:05:09.790Z,512.00
2023-03-17T12:06:09.938Z,499.00
2023-03-17T12:07:10.137Z,525.00
2023-03-17T12:08:10.331Z,519.00
2023-03-17T12:09:10.516Z,511.00
2023-03-17T12:10:10.677Z,520.00
2023-03-17T12:11:10.836Z,511.00
2023-03-17T12:12:11.057Z,516.00
2023-03-17T12:13:11.285Z,512.00
2023-03-17T12:14:11.453Z,489.00
2023-03-17T12:15:11.638Z,511.00
2023-03-17T12:52:18.028Z,511.00
2023-03-17T12:53:18.184Z,513.00
2023-03-17T12:54:18.442Z,529.00
2023-03-17T12:55:18.592Z,513.00
2023-03-17T12:56:18.806Z,517.00
2023-03-17T12:57:18.985Z,519.00
2023-03-17T12:58:19.086Z,521.00
2023-03-17T12:59:19.331Z,514.00
2023-03-17T13:00:19.449Z,512.00
2023-03-17T13:01:19.670Z,513.00
2023-03-17T13:02:19.829Z,520.00
2023-03-17T13:03:20.145Z,501.00
2023-03-17T13:04:20.130Z,520.00
2023-03-17T13:05:20.341Z,516.00
2023-03-17T13:06:20.474Z,524.00
2023-03-17T13:07:20.721Z,522.00
2023-03-17T13:08:20.852Z,523.00
2023-03-17T13:09:21.003Z,515.00
2023-03-17T13:10:21.163Z,508.00
2023-03-17T13:11:21.310Z,511.00
2023-03-17T13:52:28.200Z,536.00
2023-03-17T13:53:28.337Z,521.00
2023-03-17T13:54:28.446Z,520.00
2023-03-17T13:55:28.750Z,526.00
2023-03-17T13:56:28.801Z,521.00
2023-03-17T13:57:28.952Z,535.00
2023-03-17T13:58:29.130Z,530.00
2023-03-17T13:59:29.307Z,521.00
2023-03-17T14:00:29.419Z,530.00
2023-03-17T14:01:29.645Z,527.00
2023-03-17T14:02:29.753Z,536.00
2023-03-17T14:03:29.905Z,529.00
2023-03-17T14:04:30.146Z,527.00
2023-03-17T14:05:30.614Z,522.00
2023-03-17T14:53:38.101Z,521.00
2023-03-17T14:54:38.268Z,532.00
2023-03-17T14:55:38.415Z,533.00
2023-03-17T14:56:38.649Z,535.00
2023-03-17T14:57:38.795Z,540.00
2023-03-17T15:01:39.589Z,513.00
2023-03-17T15:29:39.535Z,456.00
2023-03-17T15:30:47.237Z,457.00
2023-03-17T15:32:39.151Z,446.00
2023-03-17T15:33:38.960Z,462.00
2023-03-17T15:34:38.821Z,449.00
2023-03-17T15:35:38.706Z,450.00
2023-03-17T15:36:38.552Z,451.00
2023-03-17T15:37:38.410Z,451.00
2023-03-17T15:38:38.264Z,453.00
2023-03-17T15:39:38.129Z,462.00
2023-03-17T15:40:38.000Z,452.00
2023-03-17T17:12:38.037Z,460.00
2023-03-17T17:13:38.213Z,464.00
2023-03-17T17:14:38.500Z,465.00
2023-03-17T17:15:38.641Z,450.00
2023-03-17T17:16:38.880Z,438.00
2023-03-17T17:17:39.045Z,471.00
2023-03-17T17:18:39.218Z,464.00
2023-03-17T17:19:39.427Z,459.00
2023-03-17T17:20:39.658Z,458.00
2023-03-17T17:21:39.877Z,454.00
2023-03-17T17:22:40.059Z,452.00
2023-03-17T17:23:40.234Z,455.00
2023-03-17T17:24:40.405Z,457.00
2023-03-17T17:25:40.601Z,455.00
2023-03-17T17:26:40.809Z,452.00
2023-03-17T17:27:41.014Z,457.00
2023-03-17T17:28:41.242Z,444.00
2023-03-17T17:29:41.435Z,444.00
2023-03-17T17:30:41.670Z,458.00
2023-03-17T17:31:41.901Z,459.00
2023-03-17T17:32:42.152Z,450.00
2023-03-17T17:33:42.225Z,454.00
2023-03-17T17:34:42.421Z,450.00
2023-03-17T17:35:42.649Z,447.00
2023-03-17T17:36:42.837Z,451.00
2023-03-17T17:37:43.054Z,447.00
2023-03-17T17:38:43.243Z,449.00
2023-03-17T17:39:43.418Z,450.00
2023-03-17T17:40:43.631Z,449.00
2023-03-17T17:41:43.817Z,446.00
2023-03-17T17:42:43.969Z,444.00
2023-03-17T17:43:44.233Z,447.00
2023-03-17T17:44:44.349Z,440.00
2023-03-17T17:45:44.533Z,442.00
2023-03-17T17:46:44.755Z,457.00
2023-03-17T17:47:45.484Z,455.00
2023-03-17T17:48:44.900Z,452.00
2023-03-17T17:49:44.836Z,451.00
2023-03-17T17:50:44.784Z,450.00
2023-03-17T17:51:44.689Z,443.00
2023-03-17T17:52:46.538Z,491.00
2023-03-17T17:53:44.724Z,475.00
2023-03-17T17:54:44.654Z,468.00
2023-03-17T17:55:44.617Z,454.00
2023-03-17T17:56:44.643Z,452.00
2023-03-17T17:57:44.776Z,471.00
2023-03-17T17:58:44.956Z,459.00
2023-03-17T17:59:45.176Z,461.00
2023-03-17T18:00:45.340Z,455.00
2023-03-17T18:01:45.493Z,448.00
2023-03-17T18:02:45.699Z,454.00
2023-03-17T18:14:48.080Z,450.00
2023-03-17T18:26:48.770Z,454.00
2023-03-17T18:27:48.704Z,450.00
2023-03-17T18:28:48.627Z,462.00
2023-03-17T18:29:48.552Z,522.00
2023-03-17T18:30:48.494Z,611.00
2023-03-17T18:31:48.472Z,632.00
2023-03-17T18:32:48.378Z,597.00
2023-03-17T18:33:48.327Z,472.00
2023-03-17T18:34:48.312Z,466.00
2023-03-17T18:35:48.307Z,459.00
2023-03-17T18:36:48.259Z,473.00
2023-03-17T18:37:48.220Z,454.00
2023-03-17T18:38:48.174Z,451.00
2023-03-17T18:39:58.554Z,450.00
2023-03-17T18:40:49.341Z,455.00
2023-03-17T18:41:48.268Z,466.00
2023-03-17T18:42:48.217Z,454.00
2023-03-17T18:43:48.148Z,450.00
2023-03-17T18:44:48.082Z,458.00
2023-03-17T18:45:48.029Z,451.00
2023-03-17T18:57:48.046Z,456.00
2023-03-17T18:58:48.174Z,457.00
2023-03-17T18:59:48.446Z,447.00
2023-03-17T19:00:48.654Z,448.00
2023-03-17T19:01:48.909Z,450.00
2023-03-17T19:02:49.117Z,441.00
2023-03-17T19:03:49.352Z,452.00
2023-03-17T19:04:50.498Z,459.00
2023-03-17T19:05:49.478Z,461.00
2023-03-17T19:06:49.437Z,458.00
2023-03-17T19:07:49.404Z,442.00
2023-03-17T19:08:49.370Z,453.00
2023-03-17T19:09:49.305Z,461.00
2023-03-17T19:10:49.256Z,456.00
2023-03-17T19:11:49.212Z,444.00
2023-03-17T19:12:49.178Z,443.00
2023-03-17T19:13:49.375Z,443.00
2023-03-17T19:14:49.561Z,484.00
2023-03-17T19:15:49.733Z,451.00
2023-03-17T19:16:49.960Z,461.00
2023-03-17T19:17:50.065Z,439.00
2023-03-17T19:18:50.322Z,467.00
2023-03-17T19:19:50.478Z,451.00
2023-03-17T19:20:50.624Z,457.00
2023-03-17T19:21:50.803Z,443.00
2023-03-17T19:22:50.998Z,452.00
2023-03-17T19:23:51.251Z,462.00
2023-03-17T19:24:51.440Z,472.00
2023-03-17T19:25:51.649Z,462.00
2023-03-17T19:26:51.832Z,451.00
2023-03-17T19:27:52.022Z,456.00
2023-03-17T19:28:52.199Z,451.00
2023-03-17T19:29:52.376Z,452.00
2023-03-17T19:30:52.629Z,436.00
2023-03-17T19:31:52.866Z,445.00
2023-03-17T19:32:53.067Z,443.00
2023-03-17T19:33:53.189Z,429.00
2023-03-17T19:34:53.404Z,440.00
2023-03-17T19:36:53.824Z,460.00
2023-03-17T19:58:58.077Z,446.00
2023-03-17T19:59:58.223Z,432.00
2023-03-17T20:00:58.380Z,469.00
2023-03-17T20:01:58.754Z,465.00
2023-03-17T20:02:58.866Z,415.00
2023-03-17T20:03:59.132Z,457.00
2023-03-17T20:04:59.210Z,448.00
2023-03-17T20:05:59.434Z,463.00
2023-03-17T20:06:59.563Z,462.00
2023-03-17T20:07:59.774Z,463.00
2023-03-17T20:08:59.937Z,485.00
2023-03-17T20:12:00.613Z,466.00
2023-03-17T20:51:08.157Z,450.00
2023-03-17T20:52:08.303Z,445.00
2023-03-17T20:53:08.524Z,456.00
2023-03-17T20:54:08.750Z,450.00
2023-03-17T20:55:08.960Z,438.00
2023-03-17T21:59:18.046Z,455.00
2023-03-17T22:00:18.225Z,510.00
2023-03-17T22:01:18.538Z,463.00
2023-03-17T22:02:18.636Z,457.00
2023-03-17T22:03:18.900Z,459.00
2023-03-17T22:04:19.049Z,476.00
2023-03-17T22:05:19.281Z,463.00
2023-03-17T22:06:19.427Z,451.00
2023-03-17T22:07:19.646Z,483.00
2023-03-17T22:08:19.915Z,464.00
2023-03-17T22:09:20.145Z,471.00
2023-03-17T22:47:28.038Z,465.00
2023-03-17T22:48:28.272Z,464.00
2023-03-17T22:49:28.457Z,465.00
2023-03-17T22:50:28.606Z,458.00
2023-03-17T22:51:28.757Z,455.00
2023-03-17T22:52:28.975Z,457.00
2023-03-17T22:53:29.200Z,461.00
2023-03-17T22:54:29.339Z,470.00
2023-03-17T22:55:29.556Z,464.00
2023-03-17T22:57:29.897Z,427.00
2023-03-17T22:58:30.105Z,451.00
2023-03-17T22:59:30.325Z,429.00
2023-03-17T23:00:30.827Z,447.00
2023-03-17T23:35:38.153Z,455.00
2023-03-17T23:36:38.259Z,456.00
2023-03-17T23:37:38.468Z,455.00
2023-03-17T23:38:38.672Z,457.00
2023-03-17T23:39:38.964Z,450.00
2023-03-17T23:40:39.097Z,451.00
2023-03-17T23:41:39.303Z,447.00
2023-03-17T23:42:39.596Z,454.00
2023-03-17T23:43:39.731Z,451.00
2023-03-17T23:44:39.965Z,451.00
2023-03-17T23:45:40.205Z,454.00
2023-03-17T23:46:40.420Z,459.00
2023-03-17T23:47:40.554Z,450.00
2023-03-17T23:48:42.600Z,436.00
2023-03-17T23:49:40.744Z,460.00
2023-03-17T23:50:40.683Z,460.00
2023-03-17T23:51:40.650Z,458.00
2023-03-17T23:52:40.642Z,452.00
2023-03-17T23:53:40.612Z,445.00
2023-03-17T23:54:40.572Z,449.00
2023-03-17T23:55:40.541Z,452.00
2023-03-17T23:56:40.489Z,451.00
2023-03-17T23:57:40.454Z,457.00
2023-03-17T23:58:40.417Z,453.00
2023-03-17T23:59:40.389Z,451.00
